sensor_id;sensor_type;location;lat;lon;timestamp;temperature;humidity
66057;DHT22;52842;52.666;5.202;2023-04-01T00:01:25;18.40;68.30
66057;DHT22;52842;52.666;5.202;2023-04-01T00:03:52;18.40;68.30
66057;DHT22;52842;52.666;5.202;2023-04-01T00:06:20;18.40;68.30
66057;DHT22;52842;52.666;5.202;2023-04-01T00:08:47;18.30;68.30
66057;DHT22;52842;52.666;5.202;2023-04-01T00:11:14;18.30;68.30
66057;DHT22;52842;52.666;5.202;2023-04-01T00:13:40;18.30;68.40
66057;DHT22;52842;52.666;5.202;2023-04-01T00:16:07;18.30;68.30
66057;DHT22;52842;52.666;5.202;2023-04-01T00:18:34;18.30;68.40
66057;DHT22;52842;52.666;5.202;2023-04-01T00:21:01;18.30;68.40
66057;DHT22;52842;52.666;5.202;2023-04-01T00:23:29;18.20;68.30
66057;DHT22;52842;52.666;5.202;2023-04-01T00:25:55;18.20;68.30
66057;DHT22;52842;52.666;5.202;2023-04-01T00:28:22;18.20;68.30
66057;DHT22;52842;52.666;5.202;2023-04-01T00:30:49;18.20;68.40
66057;DHT22;52842;52.666;5.202;2023-04-01T00:33:15;18.20;68.40
66057;DHT22;52842;52.666;5.202;2023-04-01T00:35:42;18.20;68.40
66057;DHT22;52842;52.666;5.202;2023-04-01T00:38:09;18.10;68.40
66057;DHT22;52842;52.666;5.202;2023-04-01T00:40:39;18.10;68.40
66057;DHT22;52842;52.666;5.202;2023-04-01T00:43:10;18.10;68.40
66057;DHT22;52842;52.666;5.202;2023-04-01T00:45:38;18.10;68.40
66057;DHT22;52842;52.666;5.202;2023-04-01T00:48:05;18.10;68.50
66057;DHT22;52842;52.666;5.202;2023-04-01T00:50:33;18.10;68.50
66057;DHT22;52842;52.666;5.202;2023-04-01T00:53:01;18.00;68.50
66057;DHT22;52842;52.666;5.202;2023-04-01T00:55:28;18.00;68.50
66057;DHT22;52842;52.666;5.202;2023-04-01T00:57:58;18.00;68.50
66057;DHT22;52842;52.666;5.202;2023-04-01T01:00:25;18.00;68.60
66057;DHT22;52842;52.666;5.202;2023-04-01T01:02:52;18.00;68.60
66057;DHT22;52842;52.666;5.202;2023-04-01T01:05:20;17.90;68.60
66057;DHT22;52842;52.666;5.202;2023-04-01T01:07:51;17.90;68.60
66057;DHT22;52842;52.666;5.202;2023-04-01T01:10:21;17.90;68.60
66057;DHT22;52842;52.666;5.202;2023-04-01T01:12:51;17.90;68.60
66057;DHT22;52842;52.666;5.202;2023-04-01T01:15:21;17.90;68.70
66057;DHT22;52842;52.666;5.202;2023-04-01T01:17:52;17.90;68.70
66057;DHT22;52842;52.666;5.202;2023-04-01T01:20:31;17.90;68.70
66057;DHT22;52842;52.666;5.202;2023-04-01T01:25:55;17.80;68.60
66057;DHT22;52842;52.666;5.202;2023-04-01T01:28:26;17.80;68.60
66057;DHT22;52842;52.666;5.202;2023-04-01T01:30:58;17.80;68.60
66057;DHT22;52842;52.666;5.202;2023-04-01T01:33:33;17.80;68.70
66057;DHT22;52842;52.666;5.202;2023-04-01T01:36:04;17.80;68.70
66057;DHT22;52842;52.666;5.202;2023-04-01T01:38:33;17.80;68.80
66057;DHT22;52842;52.666;5.202;2023-04-01T01:41:01;17.70;68.70
66057;DHT22;52842;52.666;5.202;2023-04-01T01:43:30;17.70;68.70
66057;DHT22;52842;52.666;5.202;2023-04-01T01:45:59;17.70;68.80
66057;DHT22;52842;52.666;5.202;2023-04-01T01:48:26;17.70;68.80
66057;DHT22;52842;52.666;5.202;2023-04-01T01:50:54;17.70;68.80
66057;DHT22;52842;52.666;5.202;2023-04-01T01:53:22;17.70;68.80
66057;DHT22;52842;52.666;5.202;2023-04-01T01:55:48;17.70;68.80
66057;DHT22;52842;52.666;5.202;2023-04-01T01:58:17;17.60;68.80
66057;DHT22;52842;52.666;5.202;2023-04-01T02:00:44;17.60;68.80
66057;DHT22;52842;52.666;5.202;2023-04-01T02:03:12;17.60;68.80
66057;DHT22;52842;52.666;5.202;2023-04-01T02:05:40;17.60;68.80
66057;DHT22;52842;52.666;5.202;2023-04-01T02:08:07;17.60;68.80
66057;DHT22;52842;52.666;5.202;2023-04-01T02:10:39;17.60;68.80
66057;DHT22;52842;52.666;5.202;2023-04-01T02:13:07;17.60;68.80
66057;DHT22;52842;52.666;5.202;2023-04-01T02:15:37;17.60;68.90
66057;DHT22;52842;52.666;5.202;2023-04-01T02:18:07;17.50;68.90
66057;DHT22;52842;52.666;5.202;2023-04-01T02:20:34;17.50;68.80
66057;DHT22;52842;52.666;5.202;2023-04-01T02:23:02;17.50;68.90
66057;DHT22;52842;52.666;5.202;2023-04-01T02:25:30;17.50;68.80
66057;DHT22;52842;52.666;5.202;2023-04-01T02:28:00;17.50;68.90
66057;DHT22;52842;52.666;5.202;2023-04-01T02:30:29;17.50;68.90
66057;DHT22;52842;52.666;5.202;2023-04-01T02:32:56;17.50;68.90
66057;DHT22;52842;52.666;5.202;2023-04-01T02:35:23;17.40;68.90
66057;DHT22;52842;52.666;5.202;2023-04-01T02:37:49;17.40;68.90
66057;DHT22;52842;52.666;5.202;2023-04-01T02:40:16;17.40;68.90
66057;DHT22;52842;52.666;5.202;2023-04-01T02:42:43;17.40;68.90
66057;DHT22;52842;52.666;5.202;2023-04-01T02:45:13;17.40;68.90
66057;DHT22;52842;52.666;5.202;2023-04-01T02:47:39;17.40;68.90
66057;DHT22;52842;52.666;5.202;2023-04-01T02:50:07;17.40;68.90
66057;DHT22;52842;52.666;5.202;2023-04-01T02:52:34;17.40;69.60
66057;DHT22;52842;52.666;5.202;2023-04-01T02:55:01;17.40;68.90
66057;DHT22;52842;52.666;5.202;2023-04-01T02:57:28;17.30;68.80
66057;DHT22;52842;52.666;5.202;2023-04-01T02:59:55;17.30;68.80
66057;DHT22;52842;52.666;5.202;2023-04-01T03:02:23;17.30;68.80
66057;DHT22;52842;52.666;5.202;2023-04-01T03:04:50;17.30;68.80
66057;DHT22;52842;52.666;5.202;2023-04-01T03:07:16;17.30;68.80
66057;DHT22;52842;52.666;5.202;2023-04-01T03:09:43;17.20;68.80
66057;DHT22;52842;52.666;5.202;2023-04-01T03:12:10;17.20;68.70
66057;DHT22;52842;52.666;5.202;2023-04-01T03:14:36;17.20;68.80
66057;DHT22;52842;52.666;5.202;2023-04-01T03:17:03;17.20;68.70
66057;DHT22;52842;52.666;5.202;2023-04-01T03:19:32;17.20;68.70
66057;DHT22;52842;52.666;5.202;2023-04-01T03:21:58;17.20;68.80
66057;DHT22;52842;52.666;5.202;2023-04-01T03:24:25;17.20;68.80
66057;DHT22;52842;52.666;5.202;2023-04-01T03:26:52;17.20;68.80
66057;DHT22;52842;52.666;5.202;2023-04-01T03:29:18;17.10;68.80
66057;DHT22;52842;52.666;5.202;2023-04-01T03:31:45;17.10;68.70
66057;DHT22;52842;52.666;5.202;2023-04-01T03:34:12;17.10;68.70
66057;DHT22;52842;52.666;5.202;2023-04-01T03:36:40;17.10;68.70
66057;DHT22;52842;52.666;5.202;2023-04-01T03:39:06;17.00;68.80
66057;DHT22;52842;52.666;5.202;2023-04-01T03:41:35;17.10;68.80
66057;DHT22;52842;52.666;5.202;2023-04-01T03:44:02;17.10;68.80
66057;DHT22;52842;52.666;5.202;2023-04-01T03:46:28;17.00;68.70
66057;DHT22;52842;52.666;5.202;2023-04-01T03:48:55;17.00;68.70
66057;DHT22;52842;52.666;5.202;2023-04-01T03:51:22;17.00;68.80
66057;DHT22;52842;52.666;5.202;2023-04-01T03:53:50;17.00;69.50
66057;DHT22;52842;52.666;5.202;2023-04-01T03:56:16;17.00;68.80
66057;DHT22;52842;52.666;5.202;2023-04-01T03:58:43;17.00;68.80
66057;DHT22;52842;52.666;5.202;2023-04-01T04:01:16;17.00;68.80
66057;DHT22;52842;52.666;5.202;2023-04-01T04:03:43;16.90;68.70
66057;DHT22;52842;52.666;5.202;2023-04-01T04:06:11;16.90;69.40
66057;DHT22;52842;52.666;5.202;2023-04-01T04:08:38;16.90;68.70
66057;DHT22;52842;52.666;5.202;2023-04-01T04:11:06;16.90;68.70
66057;DHT22;52842;52.666;5.202;2023-04-01T04:13:32;16.80;68.60
66057;DHT22;52842;52.666;5.202;2023-04-01T04:15:59;16.90;68.60
66057;DHT22;52842;52.666;5.202;2023-04-01T04:18:26;16.90;68.50
66057;DHT22;52842;52.666;5.202;2023-04-01T04:20:52;17.00;68.40
66057;DHT22;52842;52.666;5.202;2023-04-01T04:23:19;17.20;68.00
66057;DHT22;52842;52.666;5.202;2023-04-01T04:25:53;17.50;67.20
66057;DHT22;52842;52.666;5.202;2023-04-01T04:28:21;17.80;66.30
66057;DHT22;52842;52.666;5.202;2023-04-01T04:30:47;18.20;65.10
66057;DHT22;52842;52.666;5.202;2023-04-01T04:33:14;18.50;64.00
66057;DHT22;52842;52.666;5.202;2023-04-01T04:35:40;18.90;63.10
66057;DHT22;52842;52.666;5.202;2023-04-01T04:38:07;19.20;62.00
66057;DHT22;52842;52.666;5.202;2023-04-01T04:40:35;19.50;61.20
66057;DHT22;52842;52.666;5.202;2023-04-01T04:43:02;19.70;60.40
66057;DHT22;52842;52.666;5.202;2023-04-01T04:45:30;19.90;59.70
66057;DHT22;52842;52.666;5.202;2023-04-01T04:47:56;20.10;59.20
66057;DHT22;52842;52.666;5.202;2023-04-01T04:50:23;20.20;58.90
66057;DHT22;52842;52.666;5.202;2023-04-01T04:52:50;20.30;58.50
66057;DHT22;52842;52.666;5.202;2023-04-01T04:55:17;20.40;58.40
66057;DHT22;52842;52.666;5.202;2023-04-01T04:57:44;20.50;58.20
66057;DHT22;52842;52.666;5.202;2023-04-01T05:00:11;20.60;58.00
66057;DHT22;52842;52.666;5.202;2023-04-01T05:02:39;20.60;57.80
66057;DHT22;52842;52.666;5.202;2023-04-01T05:05:06;20.70;57.70
66057;DHT22;52842;52.666;5.202;2023-04-01T05:07:32;20.70;57.60
66057;DHT22;52842;52.666;5.202;2023-04-01T05:09:59;20.70;57.50
66057;DHT22;52842;52.666;5.202;2023-04-01T05:12:26;20.80;57.40
66057;DHT22;52842;52.666;5.202;2023-04-01T05:14:53;20.80;57.40
66057;DHT22;52842;52.666;5.202;2023-04-01T05:17:19;20.80;57.20
66057;DHT22;52842;52.666;5.202;2023-04-01T05:19:47;20.90;57.20
66057;DHT22;52842;52.666;5.202;2023-04-01T05:22:14;20.90;57.00
66057;DHT22;52842;52.666;5.202;2023-04-01T05:24:41;20.90;56.90
66057;DHT22;52842;52.666;5.202;2023-04-01T05:27:07;21.00;56.90
66057;DHT22;52842;52.666;5.202;2023-04-01T05:29:34;21.00;56.80
66057;DHT22;52842;52.666;5.202;2023-04-01T05:32:01;21.00;56.80
66057;DHT22;52842;52.666;5.202;2023-04-01T05:34:27;21.00;56.70
66057;DHT22;52842;52.666;5.202;2023-04-01T05:36:55;21.10;56.70
66057;DHT22;52842;52.666;5.202;2023-04-01T05:39:22;21.10;56.60
66057;DHT22;52842;52.666;5.202;2023-04-01T05:41:49;21.10;56.50
66057;DHT22;52842;52.666;5.202;2023-04-01T05:44:15;21.10;56.30
66057;DHT22;52842;52.666;5.202;2023-04-01T05:46:42;21.20;56.40
66057;DHT22;52842;52.666;5.202;2023-04-01T05:49:09;21.20;56.20
66057;DHT22;52842;52.666;5.202;2023-04-01T05:51:35;21.20;56.20
66057;DHT22;52842;52.666;5.202;2023-04-01T05:54:04;21.20;56.40
66057;DHT22;52842;52.666;5.202;2023-04-01T05:56:31;21.20;56.40
66057;DHT22;52842;52.666;5.202;2023-04-01T05:58:58;21.20;56.60
66057;DHT22;52842;52.666;5.202;2023-04-01T06:01:24;21.20;56.70
66057;DHT22;52842;52.666;5.202;2023-04-01T06:03:51;21.10;56.80
66057;DHT22;52842;52.666;5.202;2023-04-01T06:06:20;21.20;56.90
66057;DHT22;52842;52.666;5.202;2023-04-01T06:08:49;21.20;56.90
66057;DHT22;52842;52.666;5.202;2023-04-01T06:11:22;21.20;57.00
66057;DHT22;52842;52.666;5.202;2023-04-01T06:13:56;21.20;57.00
66057;DHT22;52842;52.666;5.202;2023-04-01T06:16:31;21.30;57.00
66057;DHT22;52842;52.666;5.202;2023-04-01T06:19:11;21.30;56.90
66057;DHT22;52842;52.666;5.202;2023-04-01T06:21:48;21.30;56.90
66057;DHT22;52842;52.666;5.202;2023-04-01T06:24:21;21.30;56.90
66057;DHT22;52842;52.666;5.202;2023-04-01T06:26:56;21.40;56.90
66057;DHT22;52842;52.666;5.202;2023-04-01T06:29:39;21.40;56.90
66057;DHT22;52842;52.666;5.202;2023-04-01T06:32:17;21.40;56.90
66057;DHT22;52842;52.666;5.202;2023-04-01T06:34:58;21.40;56.80
66057;DHT22;52842;52.666;5.202;2023-04-01T06:37:36;21.40;56.80
66057;DHT22;52842;52.666;5.202;2023-04-01T06:40:16;21.50;56.80
66057;DHT22;52842;52.666;5.202;2023-04-01T06:42:50;21.50;56.70
66057;DHT22;52842;52.666;5.202;2023-04-01T06:45:24;21.50;56.70
66057;DHT22;52842;52.666;5.202;2023-04-01T06:47:58;21.50;56.70
66057;DHT22;52842;52.666;5.202;2023-04-01T06:50:26;21.50;56.70
66057;DHT22;52842;52.666;5.202;2023-04-01T06:52:56;21.50;56.60
66057;DHT22;52842;52.666;5.202;2023-04-01T06:55:26;21.60;56.60
66057;DHT22;52842;52.666;5.202;2023-04-01T06:57:56;21.60;56.60
66057;DHT22;52842;52.666;5.202;2023-04-01T07:00:25;21.50;56.50
66057;DHT22;52842;52.666;5.202;2023-04-01T07:02:54;21.50;56.60
66057;DHT22;52842;52.666;5.202;2023-04-01T07:05:23;21.50;56.60
66057;DHT22;52842;52.666;5.202;2023-04-01T07:07:52;21.40;56.70
66057;DHT22;52842;52.666;5.202;2023-04-01T07:10:23;21.30;56.70
66057;DHT22;52842;52.666;5.202;2023-04-01T07:12:53;21.00;57.20
66057;DHT22;52842;52.666;5.202;2023-04-01T07:15:24;20.80;58.40
66057;DHT22;52842;52.666;5.202;2023-04-01T07:17:52;20.50;58.40
66057;DHT22;52842;52.666;5.202;2023-04-01T07:20:20;20.20;58.90
66057;DHT22;52842;52.666;5.202;2023-04-01T07:22:49;20.00;59.50
66057;DHT22;52842;52.666;5.202;2023-04-01T07:25:16;19.90;60.00
66057;DHT22;52842;52.666;5.202;2023-04-01T07:27:44;19.70;60.60
66057;DHT22;52842;52.666;5.202;2023-04-01T07:30:13;19.60;61.10
66057;DHT22;52842;52.666;5.202;2023-04-01T07:32:42;19.50;61.40
66057;DHT22;52842;52.666;5.202;2023-04-01T07:35:13;19.40;61.80
66057;DHT22;52842;52.666;5.202;2023-04-01T07:37:45;19.30;62.20
66057;DHT22;52842;52.666;5.202;2023-04-01T07:40:17;19.30;62.60
66057;DHT22;52842;52.666;5.202;2023-04-01T07:42:50;19.40;62.70
66057;DHT22;52842;52.666;5.202;2023-04-01T07:48:26;19.90;61.60
66057;DHT22;52842;52.666;5.202;2023-04-01T07:50:59;20.10;60.90
66057;DHT22;52842;52.666;5.202;2023-04-01T07:53:29;20.20;60.50
66057;DHT22;52842;52.666;5.202;2023-04-01T07:55:59;20.30;60.20
66057;DHT22;52842;52.666;5.202;2023-04-01T07:58:29;20.40;59.90
66057;DHT22;52842;52.666;5.202;2023-04-01T08:01:00;20.50;59.80
66057;DHT22;52842;52.666;5.202;2023-04-01T08:03:35;20.50;59.60
66057;DHT22;52842;52.666;5.202;2023-04-01T08:06:06;20.40;59.60
66057;DHT22;52842;52.666;5.202;2023-04-01T08:08:39;20.30;59.90
66057;DHT22;52842;52.666;5.202;2023-04-01T08:11:09;20.20;60.10
66057;DHT22;52842;52.666;5.202;2023-04-01T08:13:38;20.20;60.00
66057;DHT22;52842;52.666;5.202;2023-04-01T08:16:09;20.00;60.20
66057;DHT22;52842;52.666;5.202;2023-04-01T08:18:41;19.80;60.80
66057;DHT22;52842;52.666;5.202;2023-04-01T08:21:10;19.70;61.30
66057;DHT22;52842;52.666;5.202;2023-04-01T08:23:40;19.50;61.70
66057;DHT22;52842;52.666;5.202;2023-04-01T08:26:10;19.40;62.10
66057;DHT22;52842;52.666;5.202;2023-04-01T08:28:39;19.20;62.30
66057;DHT22;52842;52.666;5.202;2023-04-01T08:31:09;19.20;63.50
66057;DHT22;52842;52.666;5.202;2023-04-01T08:33:37;19.10;63.00
66057;DHT22;52842;52.666;5.202;2023-04-01T08:36:08;19.10;63.40
66057;DHT22;52842;52.666;5.202;2023-04-01T08:38:38;19.00;63.60
66057;DHT22;52842;52.666;5.202;2023-04-01T08:41:16;19.00;63.90
66057;DHT22;52842;52.666;5.202;2023-04-01T08:44:04;18.90;64.40
66057;DHT22;52842;52.666;5.202;2023-04-01T08:46:44;18.90;64.60
66057;DHT22;52842;52.666;5.202;2023-04-01T08:49:22;18.90;65.30
66057;DHT22;52842;52.666;5.202;2023-04-01T08:57:31;18.80;65.10
66057;DHT22;52842;52.666;5.202;2023-04-01T09:00:06;18.80;65.10
66057;DHT22;52842;52.666;5.202;2023-04-01T09:02:56;18.70;65.10
66057;DHT22;52842;52.666;5.202;2023-04-01T09:05:35;18.70;65.10
66057;DHT22;52842;52.666;5.202;2023-04-01T09:08:06;18.60;65.10
66057;DHT22;52842;52.666;5.202;2023-04-01T09:10:44;18.60;65.10
66057;DHT22;52842;52.666;5.202;2023-04-01T09:16:15;18.60;65.20
66057;DHT22;52842;52.666;5.202;2023-04-01T09:18:53;18.60;65.20
66057;DHT22;52842;52.666;5.202;2023-04-01T09:21:31;18.60;65.10
66057;DHT22;52842;52.666;5.202;2023-04-01T09:24:14;18.50;65.20
66057;DHT22;52842;52.666;5.202;2023-04-01T09:26:48;18.50;65.30
66057;DHT22;52842;52.666;5.202;2023-04-01T09:29:26;18.50;65.40
66057;DHT22;52842;52.666;5.202;2023-04-01T09:32:02;18.50;65.60
66057;DHT22;52842;52.666;5.202;2023-04-01T09:34:44;18.50;65.70
66057;DHT22;52842;52.666;5.202;2023-04-01T09:37:19;18.40;65.90
66057;DHT22;52842;52.666;5.202;2023-04-01T09:40:02;18.40;66.00
66057;DHT22;52842;52.666;5.202;2023-04-01T09:42:41;18.40;66.10
66057;DHT22;52842;52.666;5.202;2023-04-01T09:45:10;18.40;66.30
66057;DHT22;52842;52.666;5.202;2023-04-01T09:47:45;18.30;66.40
66057;DHT22;52842;52.666;5.202;2023-04-01T09:50:17;18.30;66.60
66057;DHT22;52842;52.666;5.202;2023-04-01T09:52:52;18.30;66.70
66057;DHT22;52842;52.666;5.202;2023-04-01T09:55:33;18.30;66.90
66057;DHT22;52842;52.666;5.202;2023-04-01T10:00:49;18.30;66.80
66057;DHT22;52842;52.666;5.202;2023-04-01T10:06:15;18.30;66.80
66057;DHT22;52842;52.666;5.202;2023-04-01T10:08:49;18.30;67.00
66057;DHT22;52842;52.666;5.202;2023-04-01T10:19:55;18.20;67.20
66057;DHT22;52842;52.666;5.202;2023-04-01T10:25:19;18.10;67.20
66057;DHT22;52842;52.666;5.202;2023-04-01T10:27:59;18.10;67.20
66057;DHT22;52842;52.666;5.202;2023-04-01T10:30:35;18.10;67.20
66057;DHT22;52842;52.666;5.202;2023-04-01T10:33:19;18.30;67.10
66057;DHT22;52842;52.666;5.202;2023-04-01T10:35:57;18.60;66.40
66057;DHT22;52842;52.666;5.202;2023-04-01T10:41:36;19.30;64.40
66057;DHT22;52842;52.666;5.202;2023-04-01T10:44:17;19.50;63.50
66057;DHT22;52842;52.666;5.202;2023-04-01T10:47:14;19.70;62.80
66057;DHT22;52842;52.666;5.202;2023-04-01T10:52:41;19.90;61.70
66057;DHT22;52842;52.666;5.202;2023-04-01T10:55:17;20.00;61.30
66057;DHT22;52842;52.666;5.202;2023-04-01T11:00:34;20.20;60.60
66057;DHT22;52842;52.666;5.202;2023-04-01T11:03:21;20.20;60.40
66057;DHT22;52842;52.666;5.202;2023-04-01T11:05:57;20.30;60.20
66057;DHT22;52842;52.666;5.202;2023-04-01T11:11:43;20.20;59.90
66057;DHT22;52842;52.666;5.202;2023-04-01T11:14:21;20.00;60.20
66057;DHT22;52842;52.666;5.202;2023-04-01T11:17:11;19.70;60.70
66057;DHT22;52842;52.666;5.202;2023-04-01T11:19:51;19.50;61.20
66057;DHT22;52842;52.666;5.202;2023-04-01T11:22:32;19.40;61.90
66057;DHT22;52842;52.666;5.202;2023-04-01T11:27:51;19.10;62.80
66057;DHT22;52842;52.666;5.202;2023-04-01T11:30:22;19.00;63.10
66057;DHT22;52842;52.666;5.202;2023-04-01T11:32:54;18.90;63.40
66057;DHT22;52842;52.666;5.202;2023-04-01T11:35:28;18.80;63.60
66057;DHT22;52842;52.666;5.202;2023-04-01T11:38:01;18.80;63.90
66057;DHT22;52842;52.666;5.202;2023-04-01T11:40:34;18.70;64.30
66057;DHT22;52842;52.666;5.202;2023-04-01T11:43:04;18.80;64.50
66057;DHT22;52842;52.666;5.202;2023-04-01T11:45:35;18.90;64.10
66057;DHT22;52842;52.666;5.202;2023-04-01T11:48:26;19.10;63.70
66057;DHT22;52842;52.666;5.202;2023-04-01T11:51:02;19.20;63.30
66057;DHT22;52842;52.666;5.202;2023-04-01T11:53:34;19.30;63.00
66057;DHT22;52842;52.666;5.202;2023-04-01T11:56:07;19.30;62.70
66057;DHT22;52842;52.666;5.202;2023-04-01T11:58:45;19.30;62.50
66057;DHT22;52842;52.666;5.202;2023-04-01T12:01:26;19.40;63.20
66057;DHT22;52842;52.666;5.202;2023-04-01T12:04:10;19.30;62.40
66057;DHT22;52842;52.666;5.202;2023-04-01T12:06:40;19.30;62.40
66057;DHT22;52842;52.666;5.202;2023-04-01T12:09:12;19.30;62.50
66057;DHT22;52842;52.666;5.202;2023-04-01T12:11:41;19.20;62.60
66057;DHT22;52842;52.666;5.202;2023-04-01T12:14:16;19.20;62.60
66057;DHT22;52842;52.666;5.202;2023-04-01T12:16:48;19.10;62.90
66057;DHT22;52842;52.666;5.202;2023-04-01T12:19:19;18.90;63.10
66057;DHT22;52842;52.666;5.202;2023-04-01T12:21:52;18.90;63.60
66057;DHT22;52842;52.666;5.202;2023-04-01T12:24:25;18.80;63.80
66057;DHT22;52842;52.666;5.202;2023-04-01T12:26:57;18.70;64.10
66057;DHT22;52842;52.666;5.202;2023-04-01T12:29:36;18.60;64.30
66057;DHT22;52842;52.666;5.202;2023-04-01T12:32:05;18.60;64.60
66057;DHT22;52842;52.666;5.202;2023-04-01T12:34:43;18.50;64.70
66057;DHT22;52842;52.666;5.202;2023-04-01T12:37:17;18.40;64.80
66057;DHT22;52842;52.666;5.202;2023-04-01T12:39:59;18.40;64.90
66057;DHT22;52842;52.666;5.202;2023-04-01T12:42:44;18.40;65.10
66057;DHT22;52842;52.666;5.202;2023-04-01T12:45:23;18.60;65.70
66057;DHT22;52842;52.666;5.202;2023-04-01T12:50:44;19.20;64.00
66057;DHT22;52842;52.666;5.202;2023-04-01T12:53:21;19.40;63.10
66057;DHT22;52842;52.666;5.202;2023-04-01T12:55:54;19.60;62.40
66057;DHT22;52842;52.666;5.202;2023-04-01T12:58:36;19.80;61.90
66057;DHT22;52842;52.666;5.202;2023-04-01T13:01:10;19.90;61.50
66057;DHT22;52842;52.666;5.202;2023-04-01T13:03:48;20.00;61.40
66057;DHT22;52842;52.666;5.202;2023-04-01T13:06:26;20.20;60.80
66057;DHT22;52842;52.666;5.202;2023-04-01T13:08:57;20.30;60.40
66057;DHT22;52842;52.666;5.202;2023-04-01T13:11:28;20.30;60.10
66057;DHT22;52842;52.666;5.202;2023-04-01T13:14:05;20.40;60.00
66057;DHT22;52842;52.666;5.202;2023-04-01T13:16:36;20.40;59.90
66057;DHT22;52842;52.666;5.202;2023-04-01T13:19:06;20.40;59.80
66057;DHT22;52842;52.666;5.202;2023-04-01T13:21:38;20.40;59.80
66057;DHT22;52842;52.666;5.202;2023-04-01T13:24:09;20.30;59.80
66057;DHT22;52842;52.666;5.202;2023-04-01T13:26:40;20.00;60.10
66057;DHT22;52842;52.666;5.202;2023-04-01T13:29:10;19.90;60.70
66057;DHT22;52842;52.666;5.202;2023-04-01T13:31:43;19.70;61.40
66057;DHT22;52842;52.666;5.202;2023-04-01T13:34:15;19.50;61.90
66057;DHT22;52842;52.666;5.202;2023-04-01T13:36:48;19.30;62.40
66057;DHT22;52842;52.666;5.202;2023-04-01T13:39:19;19.30;63.00
66057;DHT22;52842;52.666;5.202;2023-04-01T13:41:55;19.10;63.40
66057;DHT22;52842;52.666;5.202;2023-04-01T13:44:28;19.10;63.70
66057;DHT22;52842;52.666;5.202;2023-04-01T13:47:02;19.00;64.00
66057;DHT22;52842;52.666;5.202;2023-04-01T13:49:37;18.90;64.30
66057;DHT22;52842;52.666;5.202;2023-04-01T13:54:59;18.80;64.80
66057;DHT22;52842;52.666;5.202;2023-04-01T13:57:43;18.80;64.90
66057;DHT22;52842;52.666;5.202;2023-04-01T14:00:18;18.80;65.10
66057;DHT22;52842;52.666;5.202;2023-04-01T14:02:57;18.70;65.10
66057;DHT22;52842;52.666;5.202;2023-04-01T14:05:33;18.70;65.20
66057;DHT22;52842;52.666;5.202;2023-04-01T14:08:05;18.70;65.30
66057;DHT22;52842;52.666;5.202;2023-04-01T14:10:39;18.70;65.30
66057;DHT22;52842;52.666;5.202;2023-04-01T14:13:07;18.60;65.40
66057;DHT22;52842;52.666;5.202;2023-04-01T14:15:39;18.50;65.40
66057;DHT22;52842;52.666;5.202;2023-04-01T14:18:11;18.60;65.70
66057;DHT22;52842;52.666;5.202;2023-04-01T14:20:40;18.50;65.70
66057;DHT22;52842;52.666;5.202;2023-04-01T14:23:13;18.50;65.80
66057;DHT22;52842;52.666;5.202;2023-04-01T14:25:46;18.50;65.80
66057;DHT22;52842;52.666;5.202;2023-04-01T14:28:18;18.50;65.90
66057;DHT22;52842;52.666;5.202;2023-04-01T14:30:58;18.40;65.90
66057;DHT22;52842;52.666;5.202;2023-04-01T14:33:30;18.40;66.00
66057;DHT22;52842;52.666;5.202;2023-04-01T14:36:03;18.40;66.90
66057;DHT22;52842;52.666;5.202;2023-04-01T14:38:38;18.30;66.20
66057;DHT22;52842;52.666;5.202;2023-04-01T14:41:19;18.30;66.30
66057;DHT22;52842;52.666;5.202;2023-04-01T14:44:01;18.30;66.60
66057;DHT22;52842;52.666;5.202;2023-04-01T14:46:55;18.30;66.70
66057;DHT22;52842;52.666;5.202;2023-04-01T14:49:30;18.30;66.80
66057;DHT22;52842;52.666;5.202;2023-04-01T14:51:57;18.30;67.00
66057;DHT22;52842;52.666;5.202;2023-04-01T14:54:30;18.30;67.10
66057;DHT22;52842;52.666;5.202;2023-04-01T14:57:05;18.30;67.20
66057;DHT22;52842;52.666;5.202;2023-04-01T14:59:31;18.30;67.50
66057;DHT22;52842;52.666;5.202;2023-04-01T15:02:01;18.30;67.30
66057;DHT22;52842;52.666;5.202;2023-04-01T15:04:35;18.40;67.40
66057;DHT22;52842;52.666;5.202;2023-04-01T15:09:50;18.40;67.30
66057;DHT22;52842;52.666;5.202;2023-04-01T15:12:22;18.40;67.50
66057;DHT22;52842;52.666;5.202;2023-04-01T15:15:02;18.30;67.60
66057;DHT22;52842;52.666;5.202;2023-04-01T15:17:38;18.30;67.60
66057;DHT22;52842;52.666;5.202;2023-04-01T15:20:15;18.40;67.40
66057;DHT22;52842;52.666;5.202;2023-04-01T15:22:58;18.60;67.20
66057;DHT22;52842;52.666;5.202;2023-04-01T15:25:31;18.70;66.70
66057;DHT22;52842;52.666;5.202;2023-04-01T15:28:01;18.70;66.50
66057;DHT22;52842;52.666;5.202;2023-04-01T15:30:31;18.80;66.50
66057;DHT22;52842;52.666;5.202;2023-04-01T15:33:06;18.80;66.40
66057;DHT22;52842;52.666;5.202;2023-04-01T15:35:39;18.80;66.50
66057;DHT22;52842;52.666;5.202;2023-04-01T15:38:09;18.80;66.50
66057;DHT22;52842;52.666;5.202;2023-04-01T15:40:38;18.80;66.70
66057;DHT22;52842;52.666;5.202;2023-04-01T15:43:17;18.90;66.70
66057;DHT22;52842;52.666;5.202;2023-04-01T15:45:49;18.90;66.70
66057;DHT22;52842;52.666;5.202;2023-04-01T15:48:20;18.90;66.80
66057;DHT22;52842;52.666;5.202;2023-04-01T15:50:59;18.90;66.70
66057;DHT22;52842;52.666;5.202;2023-04-01T15:53:31;18.90;66.70
66057;DHT22;52842;52.666;5.202;2023-04-01T15:56:08;19.00;66.70
66057;DHT22;52842;52.666;5.202;2023-04-01T16:01:07;19.00;66.00
66057;DHT22;52842;52.666;5.202;2023-04-01T16:03:37;19.10;66.60
66057;DHT22;52842;52.666;5.202;2023-04-01T16:06:11;19.10;66.50
66057;DHT22;52842;52.666;5.202;2023-04-01T16:08:45;19.10;66.50
66057;DHT22;52842;52.666;5.202;2023-04-01T16:11:16;19.10;67.40
66057;DHT22;52842;52.666;5.202;2023-04-01T16:13:48;19.10;66.70
66057;DHT22;52842;52.666;5.202;2023-04-01T16:16:22;19.10;66.80
66057;DHT22;52842;52.666;5.202;2023-04-01T16:18:53;19.20;66.90
66057;DHT22;52842;52.666;5.202;2023-04-01T16:21:27;19.20;67.00
66057;DHT22;52842;52.666;5.202;2023-04-01T16:24:02;19.20;67.00
66057;DHT22;52842;52.666;5.202;2023-04-01T16:26:32;19.30;67.30
66057;DHT22;52842;52.666;5.202;2023-04-01T16:29:04;19.30;67.30
66057;DHT22;52842;52.666;5.202;2023-04-01T16:31:36;19.30;67.30
66057;DHT22;52842;52.666;5.202;2023-04-01T16:34:10;19.30;67.30
66057;DHT22;52842;52.666;5.202;2023-04-01T16:36:41;19.30;67.60
66057;DHT22;52842;52.666;5.202;2023-04-01T16:39:15;19.40;67.80
66057;DHT22;52842;52.666;5.202;2023-04-01T16:41:46;19.40;68.10
66057;DHT22;52842;52.666;5.202;2023-04-01T16:44:17;19.40;68.30
66057;DHT22;52842;52.666;5.202;2023-04-01T16:46:47;19.40;68.40
66057;DHT22;52842;52.666;5.202;2023-04-01T16:49:17;19.40;68.40
66057;DHT22;52842;52.666;5.202;2023-04-01T16:51:52;19.40;68.30
66057;DHT22;52842;52.666;5.202;2023-04-01T16:54:26;19.40;68.20